Tisul, Russia
Current Conditions -  °F | °C
As of 5:30 PM on Saturday 22 Nov 2014 (Local Time) from UNEE Reporting Station
Clear Clear  
Wind Chill: -3°   Ceiling: Unl
Heat Index: 12°   Visibility: 6mi
Dew Point: -8°   Wind: 13mph
Humidity: 41%   Direction: 260°W
Pressure: 30"   Gusts: NA
Location:  55.76°N, 88.31°E
Report Text: UNEE 221030Z 26006MPS CAVOK M11/M22 Q1016 NOSIG RMK QFE73923851034
Loading
Personal Weather Stations






























Interactive Weather Map New forecast layout! Learn more

10-Day Weather Forecast

Advertisements
Track Severe Weather on mobile